Time;durP1;ratioP1;P1;durP2;ratioP2;P2;SDS_P1;SDS_P2;PMS_P1;PMS_P2;Temp;Humidity;BMP_temperature;BMP_pressure;BME280_temperature;BME280_humidity;BME280_pressure;Samples;Min_cycle;Max_cycle;Signal;HPM_P1;HPM_P2
2024/02/09 00:02:08;;;;;;;;;6.67;4.00;;;;;13.29;100.00;98023.06;6245773;22;45472;-80
2024/02/09 00:04:34;;;;;;;;;4.33;4.00;;;;;13.31;100.00;98015.88;6246209;22;48299;-80
2024/02/09 00:06:59;;;;;;;;;6.33;6.33;;;;;13.24;100.00;98017.06;6276088;22;45406;-80
2024/02/09 00:09:25;;;;;;;;;7.67;7.67;;;;;13.25;100.00;98014.34;6249570;22;45629;-80
2024/02/09 00:11:50;;;;;;;;;4.00;3.00;;;;;13.25;100.00;98009.00;6249830;22;45396;-80
2024/02/09 00:14:16;;;;;;;;;7.33;5.00;;;;;13.26;100.00;98010.72;6276941;22;45360;-81
2024/02/09 00:17:22;;;;;;;;;9.00;5.00;;;;;13.36;100.00;98001.44;6246828;22;45635;-80
2024/02/09 00:19:47;;;;;;;;;3.33;2.67;;;;;13.23;100.00;98000.19;6248511;22;45349;-81
2024/02/09 00:22:13;;;;;;;;;3.67;3.67;;;;;13.20;100.00;97994.94;6249910;22;45737;-81
2024/02/09 00:24:41;;;;;;;;;6.00;6.00;;;;;13.26;100.00;97991.16;6274650;22;45997;-81
2024/02/09 00:27:06;;;;;;;;;3.33;3.33;;;;;13.22;100.00;98001.09;6274386;22;45363;-81
2024/02/09 00:29:32;;;;;;;;;5.00;3.50;;;;;13.17;100.00;97990.63;6271911;22;45788;-81
2024/02/09 00:31:57;;;;;;;;;4.67;4.67;;;;;13.19;100.00;97977.22;6272843;22;45433;-80
2024/02/09 00:34:23;;;;;;;;;9.50;5.50;;;;;13.18;100.00;97986.13;6275220;22;45371;-81
2024/02/09 00:36:49;;;;;;;;;5.33;4.00;;;;;13.23;100.00;97989.50;6243994;22;45513;-81
2024/02/09 00:39:16;;;;;;;;;4.00;4.00;;;;;13.26;100.00;97991.16;6246766;22;45417;-81
2024/02/09 00:41:41;;;;;;;;;5.67;5.67;;;;;13.24;100.00;97988.56;6222830;22;45436;-80
2024/02/09 00:44:08;;;;;;;;;6.67;4.67;;;;;13.25;100.00;97990.31;6276572;22;45309;-81
2024/02/09 00:46:40;;;;;;;;;7.33;4.00;;;;;13.27;100.00;97985.78;6273080;22;45330;-81
2024/02/09 00:49:07;;;;;;;;;4.00;4.00;;;;;13.21;100.00;97986.88;6276644;22;44780;-81
2024/02/09 00:51:33;;;;;;;;;3.00;3.00;;;;;13.23;100.00;98005.53;6276490;22;45496;-81
2024/02/09 00:54:00;;;;;;;;;5.00;5.00;;;;;13.23;100.00;97984.16;6274459;22;45381;-81
2024/02/09 00:56:26;;;;;;;;;5.33;5.00;;;;;13.28;100.00;97992.84;6273776;22;45314;-79
2024/02/09 00:58:55;;;;;;;;;5.00;5.00;;;;;13.39;100.00;97984.41;6247043;22;45418;-80
2024/02/09 01:01:20;;;;;;;;;3.67;3.67;;;;;13.34;100.00;97979.28;6266201;22;45341;-81
2024/02/09 01:03:47;;;;;;;;;0.33;0.33;;;;;13.39;100.00;97973.72;6281220;22;47169;-81
2024/02/09 01:06:51;;;;;;;;;7.67;5.00;;;;;13.48;100.00;97959.16;6306783;22;45337;-80
2024/02/09 01:09:17;;;;;;;;;11.00;4.00;;;;;13.34;100.00;97946.38;6306531;22;45300;-80
2024/02/09 01:11:42;;;;;;;;;4.33;4.33;;;;;13.29;100.00;97938.56;6308689;22;45339;-80
2024/02/09 02:45:12;;;;;;;;;3.75;3.75;;;;;13.43;96.42;97841.84;6305447;22;45302;-80
2024/02/09 02:47:40;;;;;;;;;4.00;3.00;;;;;13.56;95.58;97847.53;6278030;22;45465;-80
2024/02/09 03:06:34;;;;;;;;;2.00;2.00;;;;;13.32;95.62;97822.78;6304278;22;45614;-80
2024/02/09 03:09:52;;;;;;;;;4.00;3.00;;;;;13.45;95.29;97823.09;6277081;22;45741;-81
2024/02/09 03:12:17;;;;;;;;;3.00;3.00;;;;;13.32;95.67;97823.66;6307315;22;45581;-81
2024/02/09 03:14:44;;;;;;;;;5.67;4.00;;;;;13.36;95.44;97825.25;6280798;22;48128;-81
2024/02/09 03:17:10;;;;;;;;;3.25;3.00;;;;;13.32;95.30;97818.31;6304582;22;45452;-81
2024/02/09 03:19:36;;;;;;;;;1.50;1.50;;;;;13.29;95.42;97807.78;6275978;22;45523;-81
2024/02/09 03:22:02;;;;;;;;;2.67;2.67;;;;;13.32;95.92;97818.31;6278016;22;45494;-81
2024/02/09 03:24:27;;;;;;;;;3.67;2.00;;;;;13.33;95.58;97813.84;6305634;22;46232;-80
2024/02/09 03:26:53;;;;;;;;;3.00;3.00;;;;;13.30;95.90;97812.19;6277696;22;45350;-81
2024/02/09 03:29:18;;;;;;;;;3.00;3.00;;;;;13.27;95.50;97828.31;6304455;22;45291;-81
2024/02/09 03:31:43;;;;;;;;;2.67;1.33;;;;;13.25;95.73;97808.81;6278933;22;45458;-80
2024/02/09 03:34:09;;;;;;;;;4.33;3.67;;;;;13.28;95.65;97814.00;6280430;22;47977;-81
2024/02/09 03:36:34;;;;;;;;;3.67;3.33;;;;;13.23;95.50;97818.69;6308362;22;45209;-81
2024/02/09 03:39:01;;;;;;;;;4.00;4.00;;;;;13.24;95.58;97809.75;6278464;22;45380;-81
2024/02/09 03:41:27;;;;;;;;;3.00;3.00;;;;;13.25;95.81;97831.97;6277754;22;45473;-81
2024/02/09 03:43:53;;;;;;;;;2.00;2.00;;;;;13.18;95.57;97820.69;6278473;22;47241;-81
2024/02/09 03:46:19;;;;;;;;;3.33;3.33;;;;;13.20;95.84;97829.50;6305411;22;45335;-81
2024/02/09 03:48:45;;;;;;;;;3.33;3.00;;;;;13.21;95.79;97832.09;6278436;22;45378;-81
2024/02/09 03:51:10;;;;;;;;;2.00;2.00;;;;;13.18;95.96;97812.69;6276518;22;45393;-80
2024/02/09 03:53:35;;;;;;;;;2.00;2.00;;;;;13.17;95.77;97814.50;6276251;22;46987;-81
2024/02/09 03:56:01;;;;;;;;;5.00;3.33;;;;;13.18;96.02;97810.88;6278159;22;46026;-80
2024/02/09 03:58:26;;;;;;;;;2.00;2.00;;;;;13.19;95.71;97817.09;6253717;22;45592;-81
2024/02/09 04:00:52;;;;;;;;;3.00;3.00;;;;;13.20;95.91;97808.16;6305907;22;45390;-80
2024/02/09 04:03:17;;;;;;;;;3.00;3.00;;;;;13.24;95.17;97811.56;6305676;22;46197;-80
2024/02/09 04:05:43;;;;;;;;;3.00;3.00;;;;;13.26;95.29;97818.56;6277905;22;45313;-81
2024/02/09 04:08:08;;;;;;;;;3.00;3.00;;;;;13.26;95.62;97813.22;6306836;22;45358;-81
2024/02/09 04:10:37;;;;;;;;;4.00;1.00;;;;;13.26;95.36;97823.88;6279297;22;45311;-81
2024/02/09 04:13:04;;;;;;;;;4.00;2.00;;;;;13.21;95.19;97785.88;6304244;22;47159;-81
2024/02/09 04:15:30;;;;;;;;;2.00;2.00;;;;;13.19;95.34;97806.44;6306830;22;45563;-81
2024/02/09 04:17:55;;;;;;;;;2.25;2.00;;;;;13.20;95.61;97805.47;6306788;22;45320;-80
2024/02/09 04:20:21;;;;;;;;;3.67;3.00;;;;;13.17;95.34;97787.81;6308576;22;45484;-81
2024/02/09 04:22:50;;;;;;;;;2.67;2.33;;;;;13.20;95.46;97786.78;6306121;22;48003;-81
2024/02/09 04:25:16;;;;;;;;;2.00;2.00;;;;;13.23;95.58;97800.03;6278420;22;45654;-81
2024/02/09 04:27:42;;;;;;;;;3.25;3.25;;;;;13.25;95.47;97794.59;6276155;22;45717;-81
2024/02/09 04:30:08;;;;;;;;;4.00;3.00;;;;;13.23;95.36;97810.69;6277446;22;45493;-81
2024/02/09 04:32:35;;;;;;;;;2.33;2.33;;;;;13.28;95.17;97826.50;6305601;22;45535;-81
2024/02/09 04:35:00;;;;;;;;;2.50;2.25;;;;;13.30;94.85;97828.19;6279617;22;45377;-81
2024/02/09 04:37:26;;;;;;;;;3.67;3.67;;;;;13.29;94.93;97822.88;6279527;22;45532;-81
2024/02/09 04:39:51;;;;;;;;;4.00;2.00;;;;;13.32;95.30;97831.66;6307603;22;44802;-81
2024/02/09 04:42:16;;;;;;;;;3.67;3.00;;;;;13.33;95.01;97829.84;6304930;22;48313;-81
2024/02/09 04:44:42;;;;;;;;;4.00;3.00;;;;;13.37;95.03;97828.78;6303921;22;45307;-81
2024/02/09 04:47:07;;;;;;;;;2.00;1.00;;;;;13.35;95.00;97828.88;6306269;22;45361;-81
2024/02/09 04:49:34;;;;;;;;;2.00;2.00;;;;;13.36;94.68;97825.25;6307157;22;45297;-81
2024/02/09 04:52:00;;;;;;;;;4.67;2.33;;;;;13.36;94.86;97819.06;6277310;22;47285;-81
2024/02/09 04:54:25;;;;;;;;;2.75;2.50;;;;;13.36;95.05;97832.41;6278171;22;45389;-81
2024/02/09 05:00:13;;;;;;;;;1.33;1.33;;;;;13.36;94.32;97838.59;6306993;22;45415;-81
2024/02/09 05:02:43;;;;;;;;;4.67;4.67;;;;;13.40;94.53;97824.19;6273291;22;48015;-81
2024/02/09 05:05:10;;;;;;;;;3.00;3.00;;;;;13.33;94.22;97830.75;6276906;22;45292;-81
2024/02/09 05:07:37;;;;;;;;;5.75;3.00;;;;;13.35;94.43;97836.88;6277659;22;45292;-81
2024/02/09 05:10:03;;;;;;;;;2.00;2.00;;;;;13.29;94.35;97829.16;6279191;22;45368;-81
2024/02/09 05:12:31;;;;;;;;;4.00;4.00;;;;;13.31;94.95;97835.28;6251497;22;47042;-81
2024/02/09 05:14:57;;;;;;;;;5.75;3.00;;;;;13.30;95.04;97846.00;6247157;22;45431;-81
2024/02/09 05:17:23;;;;;;;;;1.75;1.75;;;;;13.28;95.03;97843.38;6246197;22;45325;-81
2024/02/09 05:19:50;;;;;;;;;3.50;2.00;;;;;13.30;95.59;97838.88;6274904;22;45378;-81
2024/02/09 05:22:16;;;;;;;;;4.00;4.00;;;;;13.33;95.46;97828.06;6249140;22;47111;-81
2024/02/09 05:24:41;;;;;;;;;3.00;3.00;;;;;13.38;95.33;97834.06;6278854;22;45335;-81
2024/02/09 05:27:09;;;;;;;;;2.00;2.00;;;;;13.42;95.56;97825.94;6250079;22;45368;-81
2024/02/09 05:29:34;;;;;;;;;3.67;3.67;;;;;13.42;95.81;97836.59;6251458;22;45380;-81
2024/02/09 05:31:59;;;;;;;;;3.67;3.00;;;;;13.47;95.71;97832.81;6247909;22;47286;-81
2024/02/09 05:34:25;;;;;;;;;1.50;1.25;;;;;13.51;95.74;97838.84;6249572;22;45514;-81
2024/02/09 05:36:54;;;;;;;;;2.25;2.25;;;;;13.50;96.13;97847.81;6249953;22;45420;-81
2024/02/09 05:39:19;;;;;;;;;2.75;2.25;;;;;13.52;96.25;97837.94;6247353;22;45696;-81
2024/02/09 05:41:45;;;;;;;;;2.00;2.00;;;;;13.51;96.46;97837.06;6275975;22;46502;-81
2024/02/09 05:44:11;;;;;;;;;3.75;2.75;;;;;13.51;96.66;97828.19;6247869;22;45719;-81
2024/02/09 05:46:37;;;;;;;;;2.50;2.25;;;;;13.48;97.03;97828.31;6277668;22;45337;-81
2024/02/09 05:49:06;;;;;;;;;3.00;3.00;;;;;13.52;96.97;97829.94;6276479;22;45257;-81
2024/02/09 05:51:33;;;;;;;;;3.00;3.00;;;;;13.55;97.24;97825.31;6248155;22;46818;-81
2024/02/09 05:53:58;;;;;;;;;3.25;2.75;;;;;13.63;97.32;97830.28;6274249;22;45391;-81
2024/02/09 05:56:29;;;;;;;;;2.33;2.33;;;;;13.70;96.92;97830.91;6248915;22;45787;-81
2024/02/09 05:58:56;;;;;;;;;4.00;3.00;;;;;13.62;96.54;97836.59;6248693;22;45363;-81
2024/02/09 06:01:31;;;;;;;;;3.33;3.00;;;;;13.63;96.37;97832.97;6259758;22;47803;-81
2024/02/09 06:03:57;;;;;;;;;2.00;2.00;;;;;13.54;96.83;97822.72;6305761;22;45397;-81
2024/02/09 06:06:22;;;;;;;;;2.33;2.33;;;;;13.58;96.77;97830.50;6280880;22;45406;-81
2024/02/09 06:08:49;;;;;;;;;2.00;2.00;;;;;13.61;96.98;97832.16;6280737;22;45396;-81
2024/02/09 06:11:19;;;;;;;;;4.33;4.00;;;;;13.65;97.12;97847.13;6304488;22;46750;-80
2024/02/09 06:13:46;;;;;;;;;2.75;2.25;;;;;13.69;100.00;97837.16;6308361;22;45638;-80
2024/02/09 06:16:15;;;;;;;;;5.00;3.33;;;;;13.58;100.00;97845.66;6308838;22;45334;-81
2024/02/09 06:18:45;;;;;;;;;5.00;2.25;;;;;13.38;100.00;97844.75;6310989;22;45220;-80
2024/02/09 06:21:13;;;;;;;;;2.00;2.00;;;;;13.34;100.00;97842.28;6310222;22;46971;-80
2024/02/09 06:23:40;;;;;;;;;6.00;3.33;;;;;13.47;100.00;97858.63;6278973;22;45379;-80
2024/02/09 06:26:08;;;;;;;;;2.67;2.67;;;;;13.54;100.00;97838.72;6309143;22;45351;-81
2024/02/09 06:28:33;;;;;;;;;1.33;1.33;;;;;13.57;100.00;97846.59;6306925;22;45324;-81
2024/02/09 06:31:00;;;;;;;;;4.33;3.67;;;;;13.67;100.00;97855.06;6279234;22;48163;-81
2024/02/09 06:36:47;;;;;;;;;4.67;3.00;;;;;13.76;100.00;97847.50;6311421;22;45319;-85
2024/02/09 06:39:19;;;;;;;;;2.33;2.33;;;;;13.90;100.00;97859.38;6311257;22;45293;-86
2024/02/09 06:41:47;;;;;;;;;3.00;3.00;;;;;13.79;99.50;97859.84;6279878;22;47489;-81
2024/02/09 06:44:12;;;;;;;;;2.67;2.67;;;;;13.78;99.50;97860.81;6280908;22;45732;-82
2024/02/09 06:46:37;;;;;;;;;6.00;5.00;;;;;13.86;99.17;97861.31;6283358;22;45366;-82
2024/02/09 06:49:03;;;;;;;;;4.00;2.67;;;;;13.90;98.98;97862.06;6307730;22;45318;-82
2024/02/09 06:51:28;;;;;;;;;3.00;3.00;;;;;13.89;98.83;97849.63;6307910;22;45356;-81
2024/02/09 06:53:55;;;;;;;;;3.00;3.00;;;;;13.99;98.61;97877.66;6280876;22;45936;-83
2024/02/09 06:56:21;;;;;;;;;2.50;1.00;;;;;13.94;98.31;97877.00;6282839;22;45411;-83
2024/02/09 06:58:46;;;;;;;;;3.00;3.00;;;;;13.96;98.66;97884.00;6282287;22;45438;-83
2024/02/09 07:01:13;;;;;;;;;3.75;3.00;;;;;13.99;98.83;97894.53;6309897;22;46809;-84
2024/02/09 07:03:39;;;;;;;;;3.25;2.50;;;;;14.06;98.76;97896.94;6283346;22;45436;-84
2024/02/09 07:06:07;;;;;;;;;5.00;3.25;;;;;14.01;98.62;97892.66;6280884;22;45481;-84
2024/02/09 07:08:39;;;;;;;;;3.00;3.00;;;;;14.05;98.53;97901.41;6312834;22;45063;-84
2024/02/09 07:11:12;;;;;;;;;4.00;4.00;;;;;14.08;98.79;97897.72;6282620;22;47705;-84
2024/02/09 07:13:43;;;;;;;;;3.25;3.25;;;;;14.07;98.89;97912.91;6309281;22;45701;-84
2024/02/09 07:16:10;;;;;;;;;1.75;1.75;;;;;13.97;99.07;97907.09;6310032;22;45760;-84
2024/02/09 07:18:39;;;;;;;;;3.25;2.00;;;;;13.92;99.41;97913.63;6312052;22;45385;-83
2024/02/09 07:21:14;;;;;;;;;4.00;4.00;;;;;13.92;99.41;97902.94;6284562;22;47213;-84
2024/02/09 07:23:40;;;;;;;;;3.33;3.33;;;;;13.94;99.58;97925.09;6284028;22;45714;-83
2024/02/09 07:26:11;;;;;;;;;4.67;3.00;;;;;13.97;99.74;97930.28;6310087;22;45358;-84
2024/02/09 07:28:40;;;;;;;;;3.33;2.00;;;;;13.97;100.00;97919.59;6310736;22;45452;-84
2024/02/09 07:31:06;;;;;;;;;1.00;1.00;;;;;14.01;99.84;97921.19;6310196;22;45990;-84
2024/02/09 07:33:33;;;;;;;;;4.00;4.00;;;;;14.08;99.69;97925.34;6307403;22;45330;-83
2024/02/09 07:35:58;;;;;;;;;5.00;5.00;;;;;14.04;99.85;97933.53;6282449;22;45457;-83
2024/02/09 07:38:24;;;;;;;;;5.00;2.00;;;;;14.04;99.65;97931.75;6286396;22;45631;-83
2024/02/09 07:40:50;;;;;;;;;2.67;2.67;;;;;14.04;99.55;97933.53;6283443;22;47084;-83
2024/02/09 07:43:15;;;;;;;;;2.00;2.00;;;;;14.10;99.73;97939.50;6312433;22;45301;-83
2024/02/09 07:45:42;;;;;;;;;1.33;1.00;;;;;14.15;99.67;97939.28;6286356;22;45368;-83
2024/02/09 07:48:07;;;;;;;;;2.67;1.67;;;;;14.18;99.45;97926.66;6315907;22;45267;-84
2024/02/09 07:50:37;;;;;;;;;3.00;3.00;;;;;14.18;99.26;97926.66;6284461;22;46954;-83
2024/02/09 07:53:03;;;;;;;;;3.00;3.00;;;;;14.29;99.19;97927.97;6285775;22;45722;-84
2024/02/09 07:55:35;;;;;;;;;2.00;2.00;;;;;14.27;98.58;97927.16;6311992;22;45267;-83
2024/02/09 07:58:00;;;;;;;;;10.00;8.67;;;;;14.27;98.59;97925.34;6285787;22;45285;-83
2024/02/09 08:00:26;;;;;;;;;6.00;6.00;;;;;14.28;98.76;97910.19;6281805;22;47902;-83
2024/02/09 08:02:52;;;;;;;;;2.00;2.00;;;;;14.36;98.75;97934.75;6316965;22;45433;-84
2024/02/09 08:05:18;;;;;;;;;2.00;2.00;;;;;14.35;99.12;97930.34;6313061;22;45327;-84
2024/02/09 08:07:47;;;;;;;;;2.00;2.00;;;;;14.49;98.93;97922.56;6318101;22;45168;-82
2024/02/09 08:10:13;;;;;;;;;2.33;2.33;;;;;14.39;99.08;97913.22;6319342;22;45461;-81
2024/02/09 08:12:39;;;;;;;;;4.00;4.00;;;;;14.40;99.29;97931.88;6308167;22;45366;-80
2024/02/09 08:15:06;;;;;;;;;1.67;1.67;;;;;14.34;99.09;97917.91;6283857;22;45391;-80
2024/02/09 08:17:35;;;;;;;;;2.00;2.00;;;;;14.33;99.17;97933.09;6312550;22;45339;-80
2024/02/09 08:20:04;;;;;;;;;2.67;2.67;;;;;14.40;99.37;97933.66;6310893;22;46955;-80
2024/02/09 08:22:32;;;;;;;;;4.50;4.00;;;;;14.34;99.45;97936.63;6312254;22;45390;-81
2024/02/09 08:24:58;;;;;;;;;2.00;1.25;;;;;14.38;99.58;97932.88;6311024;22;45407;-83
2024/02/09 08:27:24;;;;;;;;;3.50;3.50;;;;;14.40;99.16;97925.66;6285805;22;45292;-81
2024/02/09 08:29:55;;;;;;;;;3.33;3.33;;;;;14.44;99.21;97919.25;6284149;22;46985;-82
2024/02/09 08:32:23;;;;;;;;;2.50;2.25;;;;;14.45;99.08;97918.28;6287733;22;45566;-82
2024/02/09 08:34:50;;;;;;;;;2.00;2.00;;;;;14.48;98.28;97925.28;6288037;22;45309;-82
2024/02/09 08:37:19;;;;;;;;;1.50;1.50;;;;;14.52;98.45;97926.88;6287928;22;45505;-82
2024/02/09 08:39:45;;;;;;;;;3.25;2.00;;;;;14.48;98.31;97928.84;6290089;22;45668;-82
2024/02/09 08:42:11;;;;;;;;;3.75;3.00;;;;;14.54;98.41;97930.34;6313491;22;44804;-81
2024/02/09 08:44:39;;;;;;;;;1.75;1.75;;;;;14.63;98.52;97929.09;6312412;22;44696;-81
2024/02/09 08:47:04;;;;;;;;;4.67;2.67;;;;;14.68;97.58;97935.09;6290422;22;45424;-81
2024/02/09 08:49:30;;;;;;;;;2.75;2.50;;;;;14.67;97.42;97923.53;6315117;22;46542;-81
2024/02/09 08:51:58;;;;;;;;;5.00;3.75;;;;;14.79;96.39;97938.13;6314351;22;45625;-82
2024/02/09 08:54:24;;;;;;;;;3.75;3.00;;;;;14.71;95.67;97932.28;6286180;22;45435;-82
2024/02/09 08:56:51;;;;;;;;;4.00;3.75;;;;;14.73;95.82;97943.78;6314559;22;44794;-82
2024/02/09 08:59:19;;;;;;;;;3.50;3.50;;;;;14.76;95.76;97938.25;6285658;22;46427;-82
2024/02/09 09:01:54;;;;;;;;;3.00;3.00;;;;;14.90;94.40;97943.81;6312183;22;45180;-81
2024/02/09 09:04:21;;;;;;;;;3.00;3.00;;;;;14.83;94.64;97950.41;6314266;22;44809;-81
2024/02/09 09:06:53;;;;;;;;;3.00;2.00;;;;;14.83;94.96;97926.34;6314865;22;45628;-81
2024/02/09 09:09:21;;;;;;;;;1.50;1.50;;;;;14.93;94.38;97940.13;6288016;22;46908;-82
2024/02/09 09:11:46;;;;;;;;;2.25;2.00;;;;;14.98;93.06;97954.16;6262725;22;45792;-81
2024/02/09 09:14:20;;;;;;;;;2.00;2.00;;;;;14.96;92.97;97959.56;6291867;22;45312;-82
2024/02/09 09:16:57;;;;;;;;;2.00;1.25;;;;;14.83;92.72;97922.78;6290278;22;45371;-82
2024/02/09 09:19:23;;;;;;;;;2.00;2.00;;;;;14.92;92.75;97960.66;6286753;22;47085;-82
2024/02/09 09:21:48;;;;;;;;;3.00;3.00;;;;;14.84;92.28;97946.78;6288345;22;45422;-82
2024/02/09 09:24:15;;;;;;;;;3.00;3.00;;;;;14.95;92.28;97955.16;6288866;22;45319;-82
2024/02/09 09:26:42;;;;;;;;;3.75;1.25;;;;;14.78;92.37;97923.00;6314632;22;45231;-82
2024/02/09 09:29:09;;;;;;;;;1.75;1.75;;;;;14.95;91.72;97949.81;6312472;22;45757;-82
2024/02/09 09:31:38;;;;;;;;;1.50;1.50;;;;;14.86;91.63;97918.13;6288507;22;44813;-82
2024/02/09 09:34:08;;;;;;;;;4.00;2.00;;;;;15.13;91.59;97948.06;6259980;22;45130;-82
2024/02/09 09:36:34;;;;;;;;;1.00;1.00;;;;;15.16;91.14;97941.66;6294867;22;44902;-83
2024/02/09 09:39:10;;;;;;;;;2.00;2.00;;;;;15.15;90.84;97931.94;6291127;22;45339;-82
2024/02/09 09:41:41;;;;;;;;;2.25;2.25;;;;;15.48;91.05;97957.94;6289929;22;45212;-83
2024/02/09 09:44:11;;;;;;;;;1.00;1.00;;;;;15.32;89.90;97937.28;6321254;22;45351;-82
2024/02/09 09:46:42;;;;;;;;;3.00;3.00;;;;;15.62;89.69;97966.16;6253188;22;45341;-83
2024/02/09 09:49:12;;;;;;;;;5.25;2.25;;;;;15.83;89.75;97974.06;6287209;22;46918;-83
2024/02/09 09:51:40;;;;;;;;;3.00;2.00;;;;;15.90;89.05;97968.31;6315990;22;45313;-83
2024/02/09 09:54:09;;;;;;;;;2.00;2.00;;;;;16.06;88.15;97970.16;6313346;22;45390;-82
2024/02/09 09:56:37;;;;;;;;;1.50;1.50;;;;;16.01;87.52;97957.00;6285841;22;45413;-83
2024/02/09 09:59:15;;;;;;;;;1.00;1.00;;;;;16.10;87.78;97964.59;6312427;22;47733;-83
2024/02/09 10:01:46;;;;;;;;;5.00;3.50;;;;;15.94;86.26;97934.19;6287254;22;44797;-87
2024/02/09 10:04:15;;;;;;;;;4.00;4.00;;;;;16.10;86.39;97961.03;6315202;22;45322;-86
2024/02/09 10:06:42;;;;;;;;;1.00;1.00;;;;;16.11;86.07;97962.75;6318588;22;44884;-85
2024/02/09 10:09:08;;;;;;;;;2.00;2.00;;;;;15.88;85.53;97919.28;6286002;22;47426;-81
2024/02/09 10:11:36;;;;;;;;;2.50;2.00;;;;;16.12;84.91;97965.38;6309387;22;44712;-80
2024/02/09 10:14:08;;;;;;;;;3.50;3.25;;;;;16.05;85.09;97957.72;6287319;22;44996;-80
2024/02/09 10:16:34;;;;;;;;;2.50;2.50;;;;;15.98;85.58;97946.47;6310771;22;44750;-80
2024/02/09 10:19:02;;;;;;;;;3.00;3.00;;;;;16.10;83.86;97956.53;6286893;22;46937;-80
2024/02/09 10:21:28;;;;;;;;;3.75;3.00;;;;;16.07;84.64;97962.06;6312429;22;56007;-79
2024/02/09 10:23:55;;;;;;;;;3.00;3.00;;;;;15.89;84.37;97929.03;6284600;22;45262;-79
2024/02/09 10:26:24;;;;;;;;;2.00;2.00;;;;;15.98;85.65;97936.59;6313446;22;45406;-79
2024/02/09 10:28:52;;;;;;;;;3.75;3.75;;;;;16.14;85.33;97959.94;6311257;22;45648;-80
2024/02/09 10:31:22;;;;;;;;;5.50;4.00;;;;;16.11;84.51;97955.56;6283862;22;45346;-79
2024/02/09 10:33:56;;;;;;;;;5.33;5.33;;;;;16.19;84.45;97961.38;6288935;22;45266;-80
2024/02/09 10:36:23;;;;;;;;;2.00;2.00;;;;;16.18;84.91;97961.50;6319581;22;45559;-82
2024/02/09 10:38:55;;;;;;;;;3.00;3.00;;;;;16.20;84.61;97952.41;6267028;22;48191;-79
2024/02/09 10:41:26;;;;;;;;;4.00;3.00;;;;;16.21;84.41;97950.59;6287128;22;45148;-79
2024/02/09 10:43:57;;;;;;;;;4.75;3.00;;;;;16.32;85.32;97944.63;6287156;22;45377;-79
2024/02/09 10:46:27;;;;;;;;;3.50;3.50;;;;;16.56;83.60;97970.16;6291893;22;44805;-80
2024/02/09 10:48:59;;;;;;;;;4.00;4.00;;;;;16.47;84.18;97957.22;6314348;22;45353;-78
2024/02/09 10:51:35;;;;;;;;;5.50;3.50;;;;;16.45;84.06;97948.41;6283162;22;45910;-77
2024/02/09 10:54:39;;;;;;;;;2.00;2.00;;;;;16.67;84.18;97956.13;6310541;22;45272;-79
2024/02/09 10:57:10;;;;;;;;;4.75;4.75;;;;;16.63;84.07;97943.84;6283603;22;45233;-79
2024/02/09 10:59:40;;;;;;;;;4.75;4.00;;;;;16.65;83.82;97957.19;6280752;22;48677;-79
2024/02/09 11:02:13;;;;;;;;;5.00;5.00;;;;;16.67;84.22;97952.59;6314187;22;44765;-80
2024/02/09 11:04:43;;;;;;;;;3.00;3.00;;;;;16.77;83.42;97951.13;6289019;22;44784;-80
2024/02/09 11:07:09;;;;;;;;;4.25;3.00;;;;;16.85;82.66;97943.53;6282033;22;45394;-79
2024/02/09 11:09:39;;;;;;;;;5.00;5.00;;;;;16.86;82.39;97945.25;6309455;22;45687;-78
2024/02/09 11:12:13;;;;;;;;;4.00;4.00;;;;;16.95;82.42;97950.13;6282679;22;45337;-79
2024/02/09 11:14:44;;;;;;;;;5.75;5.00;;;;;16.83;nan;97933.84;6261616;22;44946;-79
2024/02/09 11:17:10;;;;;;;;;6.75;4.00;;;;;16.98;83.06;97939.19;6281709;22;45590;-79
2024/02/09 11:19:40;;;;;;;;;2.50;2.50;;;;;17.09;82.86;97924.31;6281907;22;45405;-79
2024/02/09 11:22:10;;;;;;;;;4.75;4.00;;;;;17.24;81.68;97942.22;6312643;22;45478;-78
2024/02/09 11:24:36;;;;;;;;;5.75;3.00;;;;;16.92;81.41;97914.53;6313298;22;45305;-78
2024/02/09 11:27:09;;;;;;;;;3.25;3.00;;;;;17.15;80.36;97940.06;6283151;22;45353;-79
2024/02/09 11:29:35;;;;;;;;;4.00;4.00;;;;;17.08;79.16;97926.09;6311429;22;45630;-79
2024/02/09 11:35:29;;;;;;;;;4.33;4.33;;;;;17.16;79.88;97920.31;6311509;22;45324;-78
2024/02/09 11:37:57;;;;;;;;;4.75;4.75;;;;;17.24;78.59;97919.88;6313372;22;44791;-80
2024/02/09 11:40:22;;;;;;;;;4.33;4.00;;;;;17.19;78.10;97931.75;6282607;22;45442;-77
2024/02/09 11:42:50;;;;;;;;;4.00;3.33;;;;;17.17;78.73;97922.91;6309852;22;45365;-80
2024/02/09 11:45:17;;;;;;;;;2.33;2.00;;;;;17.13;78.15;97904.38;6308706;22;45376;-77
2024/02/09 11:47:43;;;;;;;;;3.33;2.67;;;;;17.15;78.50;97913.22;6311271;22;45420;-77
2024/02/09 11:50:23;;;;;;;;;6.00;4.00;;;;;17.16;77.56;97914.94;6282688;22;46770;-78
2024/02/09 11:52:53;;;;;;;;;4.75;4.00;;;;;17.00;78.38;97902.38;6310204;22;45415;-78
2024/02/09 11:55:19;;;;;;;;;6.00;4.00;;;;;16.91;78.94;97877.91;6313959;22;44870;-77
2024/02/09 11:57:44;;;;;;;;;7.33;6.00;;;;;17.06;78.79;97906.53;6283035;22;44843;-80
2024/02/09 12:00:13;;;;;;;;;7.67;6.33;;;;;17.20;79.27;97905.75;6309813;22;45256;-77
2024/02/09 12:02:42;;;;;;;;;5.00;4.00;;;;;17.19;79.11;97886.09;6313148;22;45405;-79
2024/02/09 12:05:08;;;;;;;;;6.00;6.00;;;;;17.14;78.92;97900.72;6288381;22;45343;-77
2024/02/09 12:07:40;;;;;;;;;6.33;4.00;;;;;17.15;79.01;97903.34;6310195;22;44821;-78
2024/02/09 12:10:09;;;;;;;;;9.67;9.67;;;;;17.02;79.09;97893.38;6310000;22;45104;-78
2024/02/09 12:12:39;;;;;;;;;10.67;8.33;;;;;16.97;79.09;97885.59;6283070;22;45272;-80
2024/02/09 12:15:06;;;;;;;;;12.00;9.00;;;;;16.88;79.16;97876.25;6283683;22;45639;-77
2024/02/09 12:17:32;;;;;;;;;5.33;4.00;;;;;16.83;80.33;97866.75;6309310;22;44810;-77
2024/02/09 12:20:00;;;;;;;;;12.00;12.00;;;;;17.02;80.07;97877.28;6282950;22;47002;-78
2024/02/09 12:22:29;;;;;;;;;4.67;4.33;;;;;16.99;80.05;97873.81;6312623;22;45228;-79
2024/02/09 12:25:15;;;;;;;;;9.33;6.67;;;;;17.06;80.02;97876.16;6283960;22;45496;-81
2024/02/09 12:27:47;;;;;;;;;6.00;5.00;;;;;17.02;79.98;97845.06;6285778;22;45377;-79
2024/02/09 12:30:12;;;;;;;;;4.67;4.67;;;;;17.03;78.85;97844.09;6290984;22;46745;-78
2024/02/09 12:32:40;;;;;;;;;11.33;11.00;;;;;17.15;79.59;97872.94;6311601;22;45368;-80
2024/02/09 12:35:10;;;;;;;;;6.33;5.67;;;;;17.25;79.82;97859.81;6314918;22;45215;-79
2024/02/09 12:37:50;;;;;;;;;5.67;5.67;;;;;17.39;78.99;97863.41;6309494;22;45318;-82
2024/02/09 12:40:21;;;;;;;;;5.00;4.00;;;;;17.53;79.67;97864.38;6309453;22;46828;-79
2024/02/09 12:42:47;;;;;;;;;6.33;6.00;;;;;17.37;77.88;97838.47;6285168;22;45281;-80
2024/02/09 12:45:12;;;;;;;;;2.00;2.00;;;;;17.50;77.85;97861.91;6312782;22;45237;-79
2024/02/09 12:47:46;;;;;;;;;5.67;5.33;;;;;17.52;76.14;97852.78;6283536;22;45264;-79
2024/02/09 12:50:20;;;;;;;;;3.67;3.67;;;;;17.41;75.80;97833.78;6282403;22;46655;-79
2024/02/09 12:52:49;;;;;;;;;2.75;2.75;;;;;17.50;76.43;97856.53;6311305;22;45330;-79
2024/02/09 12:55:17;;;;;;;;;4.67;4.67;;;;;17.31;76.41;97816.47;6282555;22;44802;-78
2024/02/09 12:57:48;;;;;;;;;4.50;3.00;;;;;17.54;75.26;97844.63;6286194;22;45172;-79
2024/02/09 13:04:07;;;;;;;;;3.00;2.50;;;;;17.68;75.02;97843.81;6309479;22;45275;-77
2024/02/09 13:06:33;;;;;;;;;3.50;2.75;;;;;17.49;75.01;97831.50;6285768;22;45321;-79
2024/02/09 13:08:58;;;;;;;;;1.67;1.67;;;;;17.51;73.59;97847.50;6284376;22;44913;-78
2024/02/09 13:11:24;;;;;;;;;2.75;1.25;;;;;17.49;73.22;97833.28;6290904;22;47476;-78
2024/02/09 13:13:53;;;;;;;;;5.00;3.00;;;;;17.44;73.93;97835.41;6283135;22;45695;-78
2024/02/09 13:16:36;;;;;;;;;4.00;4.00;;;;;17.36;74.92;97827.81;6285742;22;45250;-78
2024/02/09 13:19:08;;;;;;;;;3.00;3.00;;;;;17.28;74.82;97812.16;6308891;22;45326;-79
2024/02/09 13:21:34;;;;;;;;;3.25;3.00;;;;;17.35;75.77;97828.75;6283999;22;47178;-78
2024/02/09 13:24:00;;;;;;;;;3.67;3.00;;;;;17.34;76.34;97813.59;6293991;22;44924;-79
2024/02/09 13:26:29;;;;;;;;;6.00;4.00;;;;;17.44;75.91;97830.88;6282079;22;45343;-78
2024/02/09 13:28:57;;;;;;;;;4.50;4.00;;;;;17.57;76.16;97828.31;6280734;22;45339;-77
2024/02/09 13:31:23;;;;;;;;;5.75;4.75;;;;;17.31;75.66;97779.75;6310861;22;45396;-78
2024/02/09 13:33:50;;;;;;;;;4.75;4.25;;;;;17.47;76.32;97811.03;6283792;22;45383;-79
2024/02/09 13:36:50;;;;;;;;;3.75;3.25;;;;;17.68;75.85;97820.47;6314766;22;45445;-78
2024/02/09 13:39:16;;;;;;;;;3.25;3.25;;;;;17.53;75.92;97816.91;6311310;22;45195;-77